sensor_id;sensor_type;location;lat;lon;timestamp;temperature;humidity
22635;DHT22;11484;50.858;4.384;2023-08-12T00:01:18;23.30;99.90
22635;DHT22;11484;50.858;4.384;2023-08-12T00:03:47;23.30;99.90
22635;DHT22;11484;50.858;4.384;2023-08-12T00:06:13;23.30;99.90
22635;DHT22;11484;50.858;4.384;2023-08-12T00:08:39;23.20;99.90
22635;DHT22;11484;50.858;4.384;2023-08-12T00:11:04;23.20;99.90
22635;DHT22;11484;50.858;4.384;2023-08-12T00:13:30;23.20;99.90
22635;DHT22;11484;50.858;4.384;2023-08-12T00:15:56;23.20;99.90
22635;DHT22;11484;50.858;4.384;2023-08-12T00:18:22;23.20;99.90
22635;DHT22;11484;50.858;4.384;2023-08-12T00:20:48;23.20;99.90
22635;DHT22;11484;50.858;4.384;2023-08-12T00:23:14;23.20;99.90
22635;DHT22;11484;50.858;4.384;2023-08-12T00:25:39;23.20;99.90
22635;DHT22;11484;50.858;4.384;2023-08-12T00:28:05;23.20;99.90
22635;DHT22;11484;50.858;4.384;2023-08-12T00:30:31;23.20;99.90
22635;DHT22;11484;50.858;4.384;2023-08-12T00:32:56;23.10;99.90
22635;DHT22;11484;50.858;4.384;2023-08-12T00:35:23;23.10;99.90
22635;DHT22;11484;50.858;4.384;2023-08-12T00:37:49;23.10;99.90
22635;DHT22;11484;50.858;4.384;2023-08-12T00:40:14;23.10;99.90
22635;DHT22;11484;50.858;4.384;2023-08-12T00:42:40;23.00;99.90
22635;DHT22;11484;50.858;4.384;2023-08-12T00:45:09;23.00;99.90
22635;DHT22;11484;50.858;4.384;2023-08-12T00:47:35;23.00;99.90
22635;DHT22;11484;50.858;4.384;2023-08-12T00:50:02;23.00;99.90
22635;DHT22;11484;50.858;4.384;2023-08-12T00:52:28;22.90;99.90
22635;DHT22;11484;50.858;4.384;2023-08-12T00:54:54;22.90;99.90
22635;DHT22;11484;50.858;4.384;2023-08-12T00:57:20;22.90;99.90
22635;DHT22;11484;50.858;4.384;2023-08-12T00:59:46;23.00;99.90
22635;DHT22;11484;50.858;4.384;2023-08-12T01:02:12;23.10;99.90
22635;DHT22;11484;50.858;4.384;2023-08-12T01:04:39;23.10;99.90
22635;DHT22;11484;50.858;4.384;2023-08-12T01:07:05;23.00;99.90
22635;DHT22;11484;50.858;4.384;2023-08-12T01:09:31;22.90;99.90
22635;DHT22;11484;50.858;4.384;2023-08-12T01:12:05;22.80;99.90
22635;DHT22;11484;50.858;4.384;2023-08-12T01:17:08;22.50;99.90
22635;DHT22;11484;50.858;4.384;2023-08-12T01:19:36;22.50;99.90
22635;DHT22;11484;50.858;4.384;2023-08-12T01:22:03;22.50;99.90
22635;DHT22;11484;50.858;4.384;2023-08-12T01:24:40;22.50;99.90
22635;DHT22;11484;50.858;4.384;2023-08-12T01:27:08;22.50;99.90
22635;DHT22;11484;50.858;4.384;2023-08-12T01:29:36;22.60;99.90
22635;DHT22;11484;50.858;4.384;2023-08-12T01:32:19;22.60;99.90
22635;DHT22;11484;50.858;4.384;2023-08-12T01:37:37;22.60;99.90
22635;DHT22;11484;50.858;4.384;2023-08-12T01:40:04;22.60;99.90
22635;DHT22;11484;50.858;4.384;2023-08-12T01:42:32;22.60;99.90
22635;DHT22;11484;50.858;4.384;2023-08-12T01:44:58;22.60;99.90
22635;DHT22;11484;50.858;4.384;2023-08-12T01:47:25;22.60;99.90
22635;DHT22;11484;50.858;4.384;2023-08-12T01:49:50;22.70;99.90
22635;DHT22;11484;50.858;4.384;2023-08-12T01:52:16;22.70;99.90
22635;DHT22;11484;50.858;4.384;2023-08-12T01:54:41;22.70;99.90
22635;DHT22;11484;50.858;4.384;2023-08-12T01:57:07;22.80;99.90
22635;DHT22;11484;50.858;4.384;2023-08-12T01:59:38;22.80;99.90
22635;DHT22;11484;50.858;4.384;2023-08-12T02:02:04;22.80;99.90
22635;DHT22;11484;50.858;4.384;2023-08-12T02:04:30;22.80;99.90
22635;DHT22;11484;50.858;4.384;2023-08-12T02:06:56;22.70;99.90
22635;DHT22;11484;50.858;4.384;2023-08-12T02:09:22;22.80;99.90
22635;DHT22;11484;50.858;4.384;2023-08-12T02:11:49;22.70;99.90
22635;DHT22;11484;50.858;4.384;2023-08-12T02:14:15;22.70;99.90
22635;DHT22;11484;50.858;4.384;2023-08-12T02:16:40;22.70;99.90
22635;DHT22;11484;50.858;4.384;2023-08-12T02:19:06;22.70;99.90
22635;DHT22;11484;50.858;4.384;2023-08-12T02:21:32;22.70;99.90
22635;DHT22;11484;50.858;4.384;2023-08-12T02:23:57;22.70;99.90
22635;DHT22;11484;50.858;4.384;2023-08-12T02:26:23;22.70;99.90
22635;DHT22;11484;50.858;4.384;2023-08-12T02:28:49;22.60;99.90
22635;DHT22;11484;50.858;4.384;2023-08-12T02:31:15;22.60;99.90
22635;DHT22;11484;50.858;4.384;2023-08-12T02:33:43;22.50;99.90
22635;DHT22;11484;50.858;4.384;2023-08-12T02:36:09;22.50;99.90
22635;DHT22;11484;50.858;4.384;2023-08-12T02:38:34;22.50;99.90
22635;DHT22;11484;50.858;4.384;2023-08-12T02:41:00;22.40;99.90
22635;DHT22;11484;50.858;4.384;2023-08-12T02:43:26;22.40;99.90
22635;DHT22;11484;50.858;4.384;2023-08-12T02:45:52;22.40;99.90
22635;DHT22;11484;50.858;4.384;2023-08-12T02:48:17;22.40;99.90
22635;DHT22;11484;50.858;4.384;2023-08-12T02:50:43;22.40;99.90
22635;DHT22;11484;50.858;4.384;2023-08-12T02:53:09;22.30;99.90
22635;DHT22;11484;50.858;4.384;2023-08-12T02:55:35;22.30;99.90
22635;DHT22;11484;50.858;4.384;2023-08-12T02:58:01;22.30;99.90
22635;DHT22;11484;50.858;4.384;2023-08-12T03:00:27;22.30;99.90
22635;DHT22;11484;50.858;4.384;2023-08-12T03:02:53;22.30;99.90
22635;DHT22;11484;50.858;4.384;2023-08-12T03:05:20;22.30;99.90
22635;DHT22;11484;50.858;4.384;2023-08-12T03:07:45;22.40;99.90
22635;DHT22;11484;50.858;4.384;2023-08-12T03:10:12;22.40;99.90
22635;DHT22;11484;50.858;4.384;2023-08-12T03:12:38;22.50;99.90
22635;DHT22;11484;50.858;4.384;2023-08-12T03:15:06;22.50;99.90
22635;DHT22;11484;50.858;4.384;2023-08-12T03:17:31;22.50;99.90
22635;DHT22;11484;50.858;4.384;2023-08-12T03:19:57;22.50;99.90
22635;DHT22;11484;50.858;4.384;2023-08-12T03:22:29;22.30;99.90
22635;DHT22;11484;50.858;4.384;2023-08-12T03:24:56;22.30;99.90
22635;DHT22;11484;50.858;4.384;2023-08-12T03:27:24;22.20;99.90
22635;DHT22;11484;50.858;4.384;2023-08-12T03:29:49;22.10;99.90
22635;DHT22;11484;50.858;4.384;2023-08-12T03:32:15;22.00;99.90
22635;DHT22;11484;50.858;4.384;2023-08-12T03:34:40;22.00;99.90
22635;DHT22;11484;50.858;4.384;2023-08-12T03:37:06;22.00;99.90
22635;DHT22;11484;50.858;4.384;2023-08-12T03:39:33;21.90;99.90
22635;DHT22;11484;50.858;4.384;2023-08-12T03:41:58;21.80;99.90
22635;DHT22;11484;50.858;4.384;2023-08-12T03:44:24;21.80;99.90
22635;DHT22;11484;50.858;4.384;2023-08-12T03:46:49;21.70;99.90
22635;DHT22;11484;50.858;4.384;2023-08-12T03:49:15;21.60;99.90
22635;DHT22;11484;50.858;4.384;2023-08-12T03:51:41;21.50;99.90
22635;DHT22;11484;50.858;4.384;2023-08-12T03:54:06;21.40;99.90
22635;DHT22;11484;50.858;4.384;2023-08-12T03:56:32;21.40;99.90
22635;DHT22;11484;50.858;4.384;2023-08-12T03:58:58;21.30;99.90
22635;DHT22;11484;50.858;4.384;2023-08-12T04:01:23;21.30;99.90
22635;DHT22;11484;50.858;4.384;2023-08-12T04:03:49;21.30;99.90
22635;DHT22;11484;50.858;4.384;2023-08-12T04:06:15;21.30;99.90
22635;DHT22;11484;50.858;4.384;2023-08-12T04:08:41;21.20;99.90
22635;DHT22;11484;50.858;4.384;2023-08-12T04:11:06;21.20;99.90
22635;DHT22;11484;50.858;4.384;2023-08-12T04:13:32;21.20;99.90
22635;DHT22;11484;50.858;4.384;2023-08-12T04:15:58;21.20;99.90
22635;DHT22;11484;50.858;4.384;2023-08-12T04:18:23;21.20;99.90
22635;DHT22;11484;50.858;4.384;2023-08-12T04:20:49;21.20;99.90
22635;DHT22;11484;50.858;4.384;2023-08-12T04:23:16;21.30;99.90
22635;DHT22;11484;50.858;4.384;2023-08-12T04:25:46;21.30;99.90
22635;DHT22;11484;50.858;4.384;2023-08-12T04:28:13;21.20;99.90
22635;DHT22;11484;50.858;4.384;2023-08-12T04:30:43;21.20;99.90
22635;DHT22;11484;50.858;4.384;2023-08-12T04:33:09;21.10;99.90
22635;DHT22;11484;50.858;4.384;2023-08-12T04:35:35;21.20;99.90
22635;DHT22;11484;50.858;4.384;2023-08-12T04:38:01;21.20;99.90
22635;DHT22;11484;50.858;4.384;2023-08-12T04:40:27;21.20;99.90
22635;DHT22;11484;50.858;4.384;2023-08-12T04:42:52;21.20;99.90
22635;DHT22;11484;50.858;4.384;2023-08-12T04:45:18;21.10;99.90
22635;DHT22;11484;50.858;4.384;2023-08-12T04:47:44;21.10;99.90
22635;DHT22;11484;50.858;4.384;2023-08-12T04:50:09;21.10;99.90
22635;DHT22;11484;50.858;4.384;2023-08-12T04:52:36;21.00;99.90
22635;DHT22;11484;50.858;4.384;2023-08-12T04:55:01;21.10;99.90
22635;DHT22;11484;50.858;4.384;2023-08-12T04:57:28;21.10;99.90
22635;DHT22;11484;50.858;4.384;2023-08-12T04:59:54;21.10;99.90
22635;DHT22;11484;50.858;4.384;2023-08-12T05:02:20;21.20;99.90
22635;DHT22;11484;50.858;4.384;2023-08-12T05:04:50;21.20;99.90
22635;DHT22;11484;50.858;4.384;2023-08-12T05:07:16;21.20;99.90
22635;DHT22;11484;50.858;4.384;2023-08-12T05:09:42;21.20;99.90
22635;DHT22;11484;50.858;4.384;2023-08-12T05:12:12;21.20;99.90
22635;DHT22;11484;50.858;4.384;2023-08-12T05:14:38;21.20;99.90
22635;DHT22;11484;50.858;4.384;2023-08-12T05:17:05;21.30;99.90
22635;DHT22;11484;50.858;4.384;2023-08-12T05:19:30;21.30;99.90
22635;DHT22;11484;50.858;4.384;2023-08-12T05:21:56;21.30;99.90
22635;DHT22;11484;50.858;4.384;2023-08-12T05:24:22;21.40;99.90
22635;DHT22;11484;50.858;4.384;2023-08-12T05:26:47;21.40;99.90
22635;DHT22;11484;50.858;4.384;2023-08-12T05:29:13;21.40;99.90
22635;DHT22;11484;50.858;4.384;2023-08-12T05:31:39;21.40;99.90
22635;DHT22;11484;50.858;4.384;2023-08-12T05:34:05;21.40;99.90
22635;DHT22;11484;50.858;4.384;2023-08-12T05:36:31;21.40;99.90
22635;DHT22;11484;50.858;4.384;2023-08-12T05:38:57;21.50;99.90
22635;DHT22;11484;50.858;4.384;2023-08-12T05:41:22;21.60;99.90
22635;DHT22;11484;50.858;4.384;2023-08-12T05:43:48;21.60;99.90
22635;DHT22;11484;50.858;4.384;2023-08-12T05:46:14;21.70;99.90
22635;DHT22;11484;50.858;4.384;2023-08-12T05:48:40;21.70;99.90
22635;DHT22;11484;50.858;4.384;2023-08-12T05:51:06;21.80;99.90
22635;DHT22;11484;50.858;4.384;2023-08-12T05:53:31;21.70;99.90
22635;DHT22;11484;50.858;4.384;2023-08-12T05:55:58;21.80;99.90
22635;DHT22;11484;50.858;4.384;2023-08-12T05:58:24;21.80;99.90
22635;DHT22;11484;50.858;4.384;2023-08-12T06:00:49;21.80;99.90
22635;DHT22;11484;50.858;4.384;2023-08-12T06:03:16;21.90;99.90
22635;DHT22;11484;50.858;4.384;2023-08-12T06:05:44;22.00;99.90
22635;DHT22;11484;50.858;4.384;2023-08-12T06:08:10;22.00;99.90
22635;DHT22;11484;50.858;4.384;2023-08-12T06:10:36;22.10;99.90
22635;DHT22;11484;50.858;4.384;2023-08-12T06:13:02;22.10;99.90
22635;DHT22;11484;50.858;4.384;2023-08-12T06:15:27;22.10;99.90
22635;DHT22;11484;50.858;4.384;2023-08-12T06:17:53;22.10;99.90
22635;DHT22;11484;50.858;4.384;2023-08-12T06:20:19;22.10;99.90
22635;DHT22;11484;50.858;4.384;2023-08-12T06:22:45;22.10;99.90
22635;DHT22;11484;50.858;4.384;2023-08-12T06:25:10;22.10;99.90
22635;DHT22;11484;50.858;4.384;2023-08-12T06:27:36;22.10;99.90
22635;DHT22;11484;50.858;4.384;2023-08-12T06:30:02;22.10;99.90
22635;DHT22;11484;50.858;4.384;2023-08-12T06:32:28;22.10;99.90
22635;DHT22;11484;50.858;4.384;2023-08-12T06:34:53;22.10;99.90
22635;DHT22;11484;50.858;4.384;2023-08-12T06:37:19;22.20;99.90
22635;DHT22;11484;50.858;4.384;2023-08-12T06:39:45;22.20;99.90
22635;DHT22;11484;50.858;4.384;2023-08-12T06:42:10;22.30;99.90
22635;DHT22;11484;50.858;4.384;2023-08-12T06:44:36;22.40;99.90
22635;DHT22;11484;50.858;4.384;2023-08-12T06:47:01;22.40;99.90
22635;DHT22;11484;50.858;4.384;2023-08-12T06:49:27;22.50;99.90
22635;DHT22;11484;50.858;4.384;2023-08-12T06:51:53;22.50;99.90
22635;DHT22;11484;50.858;4.384;2023-08-12T06:54:18;22.40;99.90
22635;DHT22;11484;50.858;4.384;2023-08-12T06:56:44;22.50;99.90
22635;DHT22;11484;50.858;4.384;2023-08-12T06:59:10;22.40;99.90
22635;DHT22;11484;50.858;4.384;2023-08-12T07:01:37;22.50;99.90
22635;DHT22;11484;50.858;4.384;2023-08-12T07:04:02;22.40;99.90
22635;DHT22;11484;50.858;4.384;2023-08-12T07:06:28;22.50;99.90
22635;DHT22;11484;50.858;4.384;2023-08-12T07:08:54;22.50;99.90
22635;DHT22;11484;50.858;4.384;2023-08-12T07:11:19;22.50;99.90
22635;DHT22;11484;50.858;4.384;2023-08-12T07:13:45;22.40;99.90
22635;DHT22;11484;50.858;4.384;2023-08-12T07:16:11;22.30;99.90
22635;DHT22;11484;50.858;4.384;2023-08-12T07:18:37;22.20;99.90
22635;DHT22;11484;50.858;4.384;2023-08-12T07:21:03;22.10;99.90
22635;DHT22;11484;50.858;4.384;2023-08-12T07:23:29;22.00;99.90
22635;DHT22;11484;50.858;4.384;2023-08-12T07:25:55;21.90;99.90
22635;DHT22;11484;50.858;4.384;2023-08-12T07:28:21;21.90;99.90
22635;DHT22;11484;50.858;4.384;2023-08-12T07:30:48;21.80;99.90
22635;DHT22;11484;50.858;4.384;2023-08-12T07:33:14;21.80;99.90
22635;DHT22;11484;50.858;4.384;2023-08-12T07:35:40;21.80;99.90
22635;DHT22;11484;50.858;4.384;2023-08-12T07:38:06;21.80;99.90
22635;DHT22;11484;50.858;4.384;2023-08-12T07:40:32;21.70;99.90
22635;DHT22;11484;50.858;4.384;2023-08-12T07:42:58;21.80;99.90
22635;DHT22;11484;50.858;4.384;2023-08-12T07:45:24;21.80;99.90
22635;DHT22;11484;50.858;4.384;2023-08-12T07:47:50;21.90;99.90
22635;DHT22;11484;50.858;4.384;2023-08-12T07:50:16;22.00;99.90
22635;DHT22;11484;50.858;4.384;2023-08-12T07:52:42;22.00;99.90
22635;DHT22;11484;50.858;4.384;2023-08-12T07:55:08;22.10;99.90
22635;DHT22;11484;50.858;4.384;2023-08-12T07:57:34;22.20;99.90
22635;DHT22;11484;50.858;4.384;2023-08-12T07:59:59;22.20;99.90
22635;DHT22;11484;50.858;4.384;2023-08-12T08:02:25;22.20;99.90
22635;DHT22;11484;50.858;4.384;2023-08-12T08:04:50;22.20;99.90
22635;DHT22;11484;50.858;4.384;2023-08-12T08:07:17;22.30;99.90
22635;DHT22;11484;50.858;4.384;2023-08-12T08:09:44;22.40;99.90
22635;DHT22;11484;50.858;4.384;2023-08-12T08:12:10;22.30;99.90
22635;DHT22;11484;50.858;4.384;2023-08-12T08:14:36;22.30;99.90
22635;DHT22;11484;50.858;4.384;2023-08-12T08:17:02;22.30;99.90
22635;DHT22;11484;50.858;4.384;2023-08-12T08:19:29;22.30;99.90
22635;DHT22;11484;50.858;4.384;2023-08-12T08:21:55;22.40;99.90
22635;DHT22;11484;50.858;4.384;2023-08-12T08:24:20;22.40;99.90
22635;DHT22;11484;50.858;4.384;2023-08-12T08:26:46;22.40;99.90
22635;DHT22;11484;50.858;4.384;2023-08-12T08:29:12;22.40;99.90
22635;DHT22;11484;50.858;4.384;2023-08-12T08:31:38;22.40;99.90
22635;DHT22;11484;50.858;4.384;2023-08-12T08:34:06;22.50;99.90
22635;DHT22;11484;50.858;4.384;2023-08-12T08:36:32;22.60;99.90
22635;DHT22;11484;50.858;4.384;2023-08-12T08:38:57;22.50;99.90
22635;DHT22;11484;50.858;4.384;2023-08-12T08:41:24;22.60;99.90
22635;DHT22;11484;50.858;4.384;2023-08-12T08:43:52;22.70;99.90
22635;DHT22;11484;50.858;4.384;2023-08-12T08:46:18;22.70;99.90
22635;DHT22;11484;50.858;4.384;2023-08-12T08:48:45;22.60;99.90
22635;DHT22;11484;50.858;4.384;2023-08-12T08:51:12;22.60;99.90
22635;DHT22;11484;50.858;4.384;2023-08-12T08:53:39;22.60;99.90
22635;DHT22;11484;50.858;4.384;2023-08-12T08:56:07;22.60;99.90
22635;DHT22;11484;50.858;4.384;2023-08-12T08:58:33;22.60;99.90
22635;DHT22;11484;50.858;4.384;2023-08-12T09:00:59;22.60;99.90
22635;DHT22;11484;50.858;4.384;2023-08-12T09:03:25;22.70;99.90
22635;DHT22;11484;50.858;4.384;2023-08-12T09:05:53;22.80;99.90
22635;DHT22;11484;50.858;4.384;2023-08-12T09:08:20;23.10;99.90
22635;DHT22;11484;50.858;4.384;2023-08-12T09:10:47;23.70;99.90
22635;DHT22;11484;50.858;4.384;2023-08-12T09:13:14;23.90;99.90
22635;DHT22;11484;50.858;4.384;2023-08-12T09:15:40;23.90;99.90
22635;DHT22;11484;50.858;4.384;2023-08-12T09:18:09;23.70;99.90
22635;DHT22;11484;50.858;4.384;2023-08-12T09:20:35;23.70;99.90
22635;DHT22;11484;50.858;4.384;2023-08-12T09:23:02;23.60;99.90
22635;DHT22;11484;50.858;4.384;2023-08-12T09:25:28;23.70;99.90
22635;DHT22;11484;50.858;4.384;2023-08-12T09:27:58;24.00;99.90
22635;DHT22;11484;50.858;4.384;2023-08-12T09:30:24;24.20;99.90
22635;DHT22;11484;50.858;4.384;2023-08-12T09:33:00;24.40;99.90
22635;DHT22;11484;50.858;4.384;2023-08-12T09:35:41;24.40;99.90
22635;DHT22;11484;50.858;4.384;2023-08-12T09:38:11;24.10;99.90
22635;DHT22;11484;50.858;4.384;2023-08-12T09:40:37;23.90;99.90
22635;DHT22;11484;50.858;4.384;2023-08-12T09:43:03;23.70;99.90
22635;DHT22;11484;50.858;4.384;2023-08-12T09:45:31;23.80;99.90
22635;DHT22;11484;50.858;4.384;2023-08-12T09:47:57;23.70;99.90
22635;DHT22;11484;50.858;4.384;2023-08-12T09:50:24;23.80;99.90
22635;DHT22;11484;50.858;4.384;2023-08-12T09:52:51;23.70;99.90
22635;DHT22;11484;50.858;4.384;2023-08-12T09:55:18;23.80;99.90
22635;DHT22;11484;50.858;4.384;2023-08-12T09:57:47;23.90;99.90
22635;DHT22;11484;50.858;4.384;2023-08-12T10:00:13;24.10;99.90
22635;DHT22;11484;50.858;4.384;2023-08-12T10:02:46;24.00;99.90
22635;DHT22;11484;50.858;4.384;2023-08-12T10:07:44;23.70;99.90
22635;DHT22;11484;50.858;4.384;2023-08-12T10:10:11;23.60;99.90
22635;DHT22;11484;50.858;4.384;2023-08-12T10:12:38;23.70;99.90
22635;DHT22;11484;50.858;4.384;2023-08-12T10:15:08;23.90;99.90
22635;DHT22;11484;50.858;4.384;2023-08-12T10:17:35;24.10;99.90
22635;DHT22;11484;50.858;4.384;2023-08-12T10:20:04;24.30;99.90
22635;DHT22;11484;50.858;4.384;2023-08-12T10:22:33;24.50;99.90
22635;DHT22;11484;50.858;4.384;2023-08-12T10:25:01;24.60;99.90
22635;DHT22;11484;50.858;4.384;2023-08-12T10:27:28;24.80;99.90
22635;DHT22;11484;50.858;4.384;2023-08-12T10:29:56;25.00;99.90
22635;DHT22;11484;50.858;4.384;2023-08-12T10:32:25;25.20;99.90
22635;DHT22;11484;50.858;4.384;2023-08-12T10:34:56;25.50;99.90
22635;DHT22;11484;50.858;4.384;2023-08-12T10:37:26;25.80;99.90
22635;DHT22;11484;50.858;4.384;2023-08-12T10:39:55;26.10;99.90
22635;DHT22;11484;50.858;4.384;2023-08-12T10:42:40;26.40;99.90
22635;DHT22;11484;50.858;4.384;2023-08-12T10:45:13;26.80;99.90
22635;DHT22;11484;50.858;4.384;2023-08-12T10:47:52;27.00;99.90
22635;DHT22;11484;50.858;4.384;2023-08-12T10:50:20;26.90;99.90
22635;DHT22;11484;50.858;4.384;2023-08-12T10:52:47;26.80;99.90
22635;DHT22;11484;50.858;4.384;2023-08-12T10:55:23;26.80;99.90
22635;DHT22;11484;50.858;4.384;2023-08-12T10:57:51;26.80;99.90
22635;DHT22;11484;50.858;4.384;2023-08-12T11:00:27;26.60;99.90
22635;DHT22;11484;50.858;4.384;2023-08-12T11:02:55;26.30;99.90
22635;DHT22;11484;50.858;4.384;2023-08-12T11:05:22;26.10;99.90
22635;DHT22;11484;50.858;4.384;2023-08-12T11:10:25;25.90;99.90
22635;DHT22;11484;50.858;4.384;2023-08-12T11:15:19;25.70;99.90
22635;DHT22;11484;50.858;4.384;2023-08-12T11:17:51;25.50;99.90
22635;DHT22;11484;50.858;4.384;2023-08-12T11:20:16;25.50;99.90
22635;DHT22;11484;50.858;4.384;2023-08-12T11:22:43;25.40;99.90
22635;DHT22;11484;50.858;4.384;2023-08-12T11:25:11;25.30;99.90
22635;DHT22;11484;50.858;4.384;2023-08-12T11:27:41;25.20;99.90
22635;DHT22;11484;50.858;4.384;2023-08-12T11:30:07;25.10;99.90
22635;DHT22;11484;50.858;4.384;2023-08-12T11:32:34;25.00;99.90
22635;DHT22;11484;50.858;4.384;2023-08-12T11:35:00;25.00;99.90
22635;DHT22;11484;50.858;4.384;2023-08-12T11:37:26;25.10;99.90
22635;DHT22;11484;50.858;4.384;2023-08-12T11:39:52;25.20;99.90
22635;DHT22;11484;50.858;4.384;2023-08-12T11:42:18;25.30;99.90
22635;DHT22;11484;50.858;4.384;2023-08-12T11:44:43;25.40;99.90
22635;DHT22;11484;50.858;4.384;2023-08-12T11:47:09;25.30;99.90
22635;DHT22;11484;50.858;4.384;2023-08-12T11:49:35;25.30;99.90
22635;DHT22;11484;50.858;4.384;2023-08-12T11:52:01;25.30;99.90
22635;DHT22;11484;50.858;4.384;2023-08-12T11:54:27;25.30;99.90
22635;DHT22;11484;50.858;4.384;2023-08-12T11:56:53;25.30;99.90
22635;DHT22;11484;50.858;4.384;2023-08-12T11:59:21;25.30;99.90
22635;DHT22;11484;50.858;4.384;2023-08-12T12:01:48;25.30;99.90
22635;DHT22;11484;50.858;4.384;2023-08-12T12:04:20;25.30;99.90
22635;DHT22;11484;50.858;4.384;2023-08-12T12:06:46;25.40;99.90
22635;DHT22;11484;50.858;4.384;2023-08-12T12:09:14;25.40;99.90
22635;DHT22;11484;50.858;4.384;2023-08-12T12:11:42;25.40;99.90
22635;DHT22;11484;50.858;4.384;2023-08-12T12:14:08;25.30;99.90
22635;DHT22;11484;50.858;4.384;2023-08-12T12:16:45;25.20;99.90
22635;DHT22;11484;50.858;4.384;2023-08-12T12:19:19;25.20;99.90
22635;DHT22;11484;50.858;4.384;2023-08-12T12:21:47;25.20;99.90
22635;DHT22;11484;50.858;4.384;2023-08-12T12:24:13;25.10;99.90
22635;DHT22;11484;50.858;4.384;2023-08-12T12:26:39;25.00;99.90
22635;DHT22;11484;50.858;4.384;2023-08-12T12:29:05;25.00;99.90
22635;DHT22;11484;50.858;4.384;2023-08-12T12:31:32;25.00;99.90
22635;DHT22;11484;50.858;4.384;2023-08-12T12:33:59;25.00;99.90
22635;DHT22;11484;50.858;4.384;2023-08-12T12:36:24;24.90;99.90
22635;DHT22;11484;50.858;4.384;2023-08-12T12:38:51;24.90;99.90
22635;DHT22;11484;50.858;4.384;2023-08-12T12:41:16;24.90;99.90
22635;DHT22;11484;50.858;4.384;2023-08-12T12:43:42;24.80;99.90
22635;DHT22;11484;50.858;4.384;2023-08-12T12:46:08;24.80;99.90
22635;DHT22;11484;50.858;4.384;2023-08-12T12:48:34;24.90;99.90
22635;DHT22;11484;50.858;4.384;2023-08-12T12:51:00;24.90;99.90
22635;DHT22;11484;50.858;4.384;2023-08-12T12:53:25;25.00;99.90
22635;DHT22;11484;50.858;4.384;2023-08-12T12:55:51;25.00;99.90
22635;DHT22;11484;50.858;4.384;2023-08-12T12:58:17;25.20;99.90
22635;DHT22;11484;50.858;4.384;2023-08-12T13:00:43;25.20;99.90
22635;DHT22;11484;50.858;4.384;2023-08-12T13:03:09;25.30;99.90
22635;DHT22;11484;50.858;4.384;2023-08-12T13:05:35;25.30;99.90
22635;DHT22;11484;50.858;4.384;2023-08-12T13:08:00;25.30;99.90
22635;DHT22;11484;50.858;4.384;2023-08-12T13:10:26;25.40;99.90
22635;DHT22;11484;50.858;4.384;2023-08-12T13:12:51;25.30;99.90
22635;DHT22;11484;50.858;4.384;2023-08-12T13:15:17;25.20;99.90
22635;DHT22;11484;50.858;4.384;2023-08-12T13:17:43;25.00;99.90
22635;DHT22;11484;50.858;4.384;2023-08-12T13:20:09;24.90;99.90
22635;DHT22;11484;50.858;4.384;2023-08-12T13:22:35;24.90;99.90
22635;DHT22;11484;50.858;4.384;2023-08-12T13:25:01;24.90;99.90
22635;DHT22;11484;50.858;4.384;2023-08-12T13:27:27;25.10;99.90
22635;DHT22;11484;50.858;4.384;2023-08-12T13:29:53;25.20;99.90
22635;DHT22;11484;50.858;4.384;2023-08-12T13:32:18;25.30;99.90
22635;DHT22;11484;50.858;4.384;2023-08-12T13:34:44;25.40;99.90
22635;DHT22;11484;50.858;4.384;2023-08-12T13:37:12;25.40;99.90
22635;DHT22;11484;50.858;4.384;2023-08-12T13:39:37;25.40;99.90
22635;DHT22;11484;50.858;4.384;2023-08-12T13:42:04;25.30;99.90
22635;DHT22;11484;50.858;4.384;2023-08-12T13:44:30;25.20;99.90
22635;DHT22;11484;50.858;4.384;2023-08-12T13:46:55;25.30;99.90
22635;DHT22;11484;50.858;4.384;2023-08-12T13:49:21;25.30;99.90
22635;DHT22;11484;50.858;4.384;2023-08-12T13:51:47;25.30;99.90
22635;DHT22;11484;50.858;4.384;2023-08-12T13:54:12;25.30;99.90
22635;DHT22;11484;50.858;4.384;2023-08-12T13:56:38;25.30;99.90
22635;DHT22;11484;50.858;4.384;2023-08-12T13:59:04;25.30;99.90
22635;DHT22;11484;50.858;4.384;2023-08-12T14:01:30;25.30;99.90
22635;DHT22;11484;50.858;4.384;2023-08-12T14:03:55;25.20;99.90
22635;DHT22;11484;50.858;4.384;2023-08-12T14:06:21;25.20;99.90
22635;DHT22;11484;50.858;4.384;2023-08-12T14:08:47;25.20;99.90
22635;DHT22;11484;50.858;4.384;2023-08-12T14:11:12;25.10;99.90
22635;DHT22;11484;50.858;4.384;2023-08-12T14:13:38;25.10;99.90
22635;DHT22;11484;50.858;4.384;2023-08-12T14:16:03;25.10;99.90
22635;DHT22;11484;50.858;4.384;2023-08-12T14:18:29;25.10;99.90
22635;DHT22;11484;50.858;4.384;2023-08-12T14:20:55;25.00;99.90
22635;DHT22;11484;50.858;4.384;2023-08-12T14:23:21;25.00;99.90
22635;DHT22;11484;50.858;4.384;2023-08-12T14:25:46;25.00;99.90
22635;DHT22;11484;50.858;4.384;2023-08-12T14:28:12;25.00;99.90
22635;DHT22;11484;50.858;4.384;2023-08-12T14:30:37;25.00;99.90
22635;DHT22;11484;50.858;4.384;2023-08-12T14:33:03;25.10;99.90
22635;DHT22;11484;50.858;4.384;2023-08-12T14:35:29;25.10;99.90
22635;DHT22;11484;50.858;4.384;2023-08-12T14:37:55;25.10;99.90
22635;DHT22;11484;50.858;4.384;2023-08-12T14:40:20;25.10;99.90
22635;DHT22;11484;50.858;4.384;2023-08-12T14:42:46;25.10;99.90
22635;DHT22;11484;50.858;4.384;2023-08-12T14:45:12;25.10;99.90
22635;DHT22;11484;50.858;4.384;2023-08-12T14:47:37;25.10;99.90
22635;DHT22;11484;50.858;4.384;2023-08-12T14:50:04;25.10;99.90
22635;DHT22;11484;50.858;4.384;2023-08-12T14:52:29;25.00;99.90
22635;DHT22;11484;50.858;4.384;2023-08-12T14:54:55;25.00;99.90
22635;DHT22;11484;50.858;4.384;2023-08-12T14:57:21;25.00;99.90
22635;DHT22;11484;50.858;4.384;2023-08-12T14:59:46;25.00;99.90
22635;DHT22;11484;50.858;4.384;2023-08-12T15:02:16;25.00;99.90
22635;DHT22;11484;50.858;4.384;2023-08-12T15:04:43;24.90;99.90
22635;DHT22;11484;50.858;4.384;2023-08-12T15:07:08;25.00;99.90
22635;DHT22;11484;50.858;4.384;2023-08-12T15:09:34;25.00;99.90
22635;DHT22;11484;50.858;4.384;2023-08-12T15:11:59;25.00;99.90
22635;DHT22;11484;50.858;4.384;2023-08-12T15:14:25;25.00;99.90
22635;DHT22;11484;50.858;4.384;2023-08-12T15:16:51;25.20;99.90
22635;DHT22;11484;50.858;4.384;2023-08-12T15:19:17;25.20;99.70
22635;DHT22;11484;50.858;4.384;2023-08-12T15:21:42;25.10;99.40
22635;DHT22;11484;50.858;4.384;2023-08-12T15:24:08;25.10;99.40
22635;DHT22;11484;50.858;4.384;2023-08-12T15:26:34;25.00;98.60
22635;DHT22;11484;50.858;4.384;2023-08-12T15:29:00;25.00;99.30
22635;DHT22;11484;50.858;4.384;2023-08-12T15:31:25;25.00;99.30
22635;DHT22;11484;50.858;4.384;2023-08-12T15:33:51;25.00;99.10
22635;DHT22;11484;50.858;4.384;2023-08-12T15:36:17;25.10;99.00
22635;DHT22;11484;50.858;4.384;2023-08-12T15:38:45;25.20;99.10